Rollin, Michigan
Current Conditions -  °F | °C
As of 4:53 PM on Wednesday 22 Oct 2014 (Local Time) from KADG Reporting Station
Broken Clouds Broken Clouds  
Wind Chill: 52°   Ceiling: 3100
Heat Index: 52°   Visibility: 10mi
Dew Point: 40°   Wind: 6mph
Humidity: 63%   Direction: 340°NNW
Pressure: 30.3"   Gusts: NA
Location:  41.91°N, 84.32°W
Report Text: KADG 222053Z AUTO 34005KT 10SM BKN031 11/04 A3030 RMK AO2 SLP265 T01110044 56007
Loading
Personal Weather Stations






























Interactive Weather Map
Tropical Storm Tracking
New forecast layout! Learn more

10-Day Weather Forecast

Advertisements
Track Severe Weather on mobile